createdAt,value
2019-03-29T00:01:43.188Z,15.03
2019-03-29T00:04:12.699Z,14.93
2019-03-29T00:06:42.163Z,14.60
2019-03-29T00:09:13.263Z,12.50
2019-03-29T00:11:42.789Z,15.20
2019-03-29T00:14:12.284Z,13.47
2019-03-29T00:16:41.923Z,14.60
2019-03-29T00:19:11.454Z,14.73
2019-03-29T00:21:40.919Z,15.40
2019-03-29T00:24:10.492Z,13.13
2019-03-29T00:26:40.047Z,14.80
2019-03-29T00:29:09.536Z,14.83
2019-03-29T00:31:39.978Z,13.97
2019-03-29T00:34:09.716Z,13.47
2019-03-29T00:36:39.154Z,13.53
2019-03-29T00:39:09.039Z,16.03
2019-03-29T00:41:38.524Z,14.17
2019-03-29T00:44:08.023Z,12.40
2019-03-29T00:46:37.900Z,12.70
2019-03-29T00:49:07.471Z,12.40
2019-03-29T00:51:36.994Z,14.50
2019-03-29T00:54:06.489Z,12.63
2019-03-29T00:56:35.964Z,12.87
2019-03-29T00:59:05.490Z,12.07
2019-03-29T01:01:35.048Z,14.70
2019-03-29T01:04:05.692Z,11.07
2019-03-29T01:06:35.308Z,10.57
2019-03-29T01:09:05.826Z,9.87
2019-03-29T01:11:35.307Z,9.83
2019-03-29T01:14:04.846Z,11.20
2019-03-29T01:16:34.419Z,10.70
2019-03-29T01:19:04.030Z,9.97
2019-03-29T01:21:33.629Z,11.87
2019-03-29T01:24:03.113Z,11.20
2019-03-29T01:26:32.567Z,10.93
2019-03-29T01:29:02.126Z,10.90
2019-03-29T01:31:34.065Z,11.90
2019-03-29T01:34:03.553Z,14.23
2019-03-29T01:36:33.004Z,12.40
2019-03-29T01:39:02.490Z,11.70
2019-03-29T01:41:32.051Z,11.77
2019-03-29T01:44:02.026Z,12.07
2019-03-29T01:46:31.800Z,15.03
2019-03-29T01:49:01.295Z,15.40
2019-03-29T01:51:50.132Z,10.87
2019-03-29T01:54:19.592Z,10.93
2019-03-29T01:56:49.164Z,12.23
2019-03-29T01:59:18.623Z,12.37
2019-03-29T02:01:48.194Z,13.80
2019-03-29T02:04:17.671Z,12.53
2019-03-29T02:06:47.237Z,9.80
2019-03-29T02:09:16.700Z,13.13
2019-03-29T02:11:46.185Z,11.80
2019-03-29T02:14:15.792Z,12.33
2019-03-29T02:16:45.257Z,12.27
2019-03-29T02:19:14.988Z,12.07
2019-03-29T02:21:44.554Z,12.43
2019-03-29T02:24:14.043Z,12.27
2019-03-29T02:26:43.520Z,10.90
2019-03-29T02:29:13.002Z,11.13
2019-03-29T02:31:43.827Z,9.30
2019-03-29T02:34:13.352Z,10.80
2019-03-29T02:36:44.240Z,10.47
2019-03-29T02:39:13.711Z,10.37
2019-03-29T02:41:43.200Z,9.40
2019-03-29T02:44:12.673Z,8.80
2019-03-29T02:46:42.118Z,7.57
2019-03-29T02:49:12.734Z,8.70
2019-03-29T02:51:44.254Z,9.47
2019-03-29T02:54:13.744Z,8.87
2019-03-29T02:57:02.688Z,8.23
2019-03-29T02:59:32.216Z,8.27
2019-03-29T03:02:01.997Z,10.93
2019-03-29T03:04:50.868Z,10.33
2019-03-29T03:07:20.319Z,9.07
2019-03-29T03:09:49.878Z,8.30
2019-03-29T03:12:19.324Z,7.50
2019-03-29T03:14:48.817Z,7.53
2019-03-29T03:17:18.276Z,8.50
2019-03-29T03:19:47.754Z,7.47
2019-03-29T03:22:17.223Z,8.20
2019-03-29T03:24:46.706Z,7.17
2019-03-29T03:27:16.238Z,10.03
2019-03-29T03:29:48.202Z,9.73
2019-03-29T03:32:17.002Z,8.03
2019-03-29T03:34:46.486Z,6.93
2019-03-29T03:37:15.954Z,7.60
2019-03-29T03:39:45.414Z,9.70
2019-03-29T03:42:14.981Z,8.20
2019-03-29T03:44:44.453Z,7.33
2019-03-29T03:47:13.934Z,6.43
2019-03-29T03:49:43.413Z,8.53
2019-03-29T03:52:12.958Z,7.23
2019-03-29T03:54:42.857Z,7.33
2019-03-29T03:57:13.485Z,7.50
2019-03-29T03:59:44.211Z,8.27
2019-03-29T04:02:13.716Z,7.23
2019-03-29T04:04:43.218Z,6.93
2019-03-29T04:07:12.677Z,7.67
2019-03-29T04:09:50.115Z,7.37
2019-03-29T04:12:13.374Z,8.13
2019-03-29T04:14:42.863Z,6.23
2019-03-29T04:17:12.395Z,7.50
2019-03-29T04:19:41.891Z,6.10
2019-03-29T04:22:11.383Z,6.90
2019-03-29T04:24:40.865Z,7.10
2019-03-29T04:27:10.361Z,7.03
2019-03-29T04:29:39.859Z,7.27
2019-03-29T04:32:09.319Z,6.77
2019-03-29T04:34:38.886Z,7.43
2019-03-29T04:37:08.356Z,7.23
2019-03-29T04:39:37.868Z,5.90
2019-03-29T04:42:07.381Z,5.77
2019-03-29T04:44:36.851Z,6.20
2019-03-29T04:47:06.349Z,7.43
2019-03-29T04:49:35.847Z,7.17
2019-03-29T04:52:05.308Z,6.20
2019-03-29T04:54:34.811Z,5.73
2019-03-29T04:57:04.306Z,6.37
2019-03-29T04:59:33.781Z,6.60
2019-03-29T05:02:03.268Z,7.30
2019-03-29T05:04:32.750Z,6.23
2019-03-29T05:07:02.239Z,7.23
2019-03-29T05:09:33.342Z,5.60
2019-03-29T05:12:04.187Z,5.23
2019-03-29T05:14:33.662Z,7.90
2019-03-29T05:17:03.205Z,6.53
2019-03-29T05:19:32.681Z,7.17
2019-03-29T05:22:02.178Z,5.43
2019-03-29T05:24:31.632Z,6.57
2019-03-29T05:27:01.126Z,5.73
2019-03-29T05:29:30.622Z,6.17
2019-03-29T05:32:00.103Z,7.70
2019-03-29T05:34:31.615Z,7.10
2019-03-29T05:37:00.780Z,6.40
2019-03-29T05:39:30.403Z,5.70
2019-03-29T05:41:59.871Z,6.13
2019-03-29T05:44:29.434Z,7.43
2019-03-29T05:46:58.921Z,6.10
2019-03-29T05:49:28.414Z,7.17
2019-03-29T05:51:57.881Z,6.27
2019-03-29T05:54:27.454Z,7.37
2019-03-29T05:56:57.008Z,8.07
2019-03-29T05:59:26.484Z,7.47
2019-03-29T06:01:56.038Z,6.93
2019-03-29T06:04:25.539Z,8.03
2019-03-29T06:06:55.113Z,5.73
2019-03-29T06:09:24.572Z,6.80
2019-03-29T06:11:54.131Z,5.57
2019-03-29T06:14:23.596Z,5.67
2019-03-29T06:16:53.121Z,5.97
2019-03-29T06:19:22.581Z,7.00
2019-03-29T06:21:52.143Z,6.43
2019-03-29T06:24:21.600Z,5.63
2019-03-29T06:26:51.089Z,7.30
2019-03-29T06:29:20.613Z,4.83
2019-03-29T06:31:50.114Z,6.63
2019-03-29T06:34:19.584Z,6.73
2019-03-29T06:36:50.978Z,5.67
2019-03-29T06:39:21.533Z,5.83
2019-03-29T06:41:50.959Z,5.90
2019-03-29T06:44:20.447Z,6.63
2019-03-29T06:46:49.898Z,4.97
2019-03-29T06:49:19.386Z,5.53
2019-03-29T06:51:48.870Z,6.27
2019-03-29T06:54:18.326Z,5.83
2019-03-29T06:56:47.801Z,5.97
2019-03-29T06:59:17.368Z,6.43
2019-03-29T07:01:46.827Z,6.07
2019-03-29T07:04:16.468Z,6.17
2019-03-29T07:06:46.056Z,7.20
2019-03-29T07:09:15.519Z,7.27
2019-03-29T07:11:45.006Z,7.97
2019-03-29T07:14:14.562Z,7.47
2019-03-29T07:16:44.018Z,9.80
2019-03-29T07:19:13.516Z,9.53
2019-03-29T07:21:43.036Z,6.47
2019-03-29T07:24:12.510Z,9.40
2019-03-29T07:26:42.029Z,7.87
2019-03-29T07:29:30.985Z,7.87
2019-03-29T07:32:19.789Z,6.23
2019-03-29T07:34:49.437Z,6.13
2019-03-29T07:37:19.003Z,7.63
2019-03-29T07:39:48.482Z,6.37
2019-03-29T07:42:17.949Z,6.90
2019-03-29T07:44:47.439Z,7.70
2019-03-29T07:47:16.940Z,5.60
2019-03-29T07:49:46.458Z,5.90
2019-03-29T07:52:15.930Z,6.30
2019-03-29T07:54:45.419Z,5.10
2019-03-29T07:57:14.967Z,5.50
2019-03-29T07:59:44.475Z,5.70
2019-03-29T08:02:13.965Z,7.73
2019-03-29T08:04:46.375Z,7.10
2019-03-29T08:07:26.736Z,5.53
2019-03-29T08:10:06.509Z,6.03
2019-03-29T08:12:36.000Z,7.40
2019-03-29T08:15:09.437Z,6.33
2019-03-29T08:17:39.006Z,6.33
2019-03-29T08:20:37.479Z,5.37
2019-03-29T08:22:39.860Z,6.07
2019-03-29T08:25:10.801Z,7.57
2019-03-29T08:27:40.336Z,8.97
2019-03-29T08:30:10.307Z,6.87
2019-03-29T08:32:39.809Z,7.47
2019-03-29T08:35:09.493Z,7.07
2019-03-29T08:37:38.979Z,6.53
2019-03-29T08:40:08.767Z,6.63
2019-03-29T08:42:38.259Z,6.83
2019-03-29T08:45:08.469Z,6.67
2019-03-29T08:47:37.943Z,7.80
2019-03-29T08:50:08.480Z,7.63
2019-03-29T08:52:38.021Z,8.67
2019-03-29T08:55:08.371Z,7.00
2019-03-29T08:57:38.003Z,6.70
2019-03-29T09:00:08.560Z,5.70
2019-03-29T09:02:38.156Z,7.13
2019-03-29T09:05:08.132Z,9.57
2019-03-29T09:07:44.411Z,7.10
2019-03-29T09:10:28.936Z,6.97
2019-03-29T09:12:58.422Z,6.30
2019-03-29T09:15:27.978Z,6.20
2019-03-29T09:17:59.936Z,7.47
2019-03-29T09:20:29.720Z,5.90
2019-03-29T09:22:59.286Z,5.47
2019-03-29T09:25:28.843Z,5.77
2019-03-29T09:27:58.353Z,6.57
2019-03-29T09:30:27.854Z,5.00
2019-03-29T09:32:57.418Z,6.03
2019-03-29T09:35:27.061Z,6.13
2019-03-29T09:37:56.807Z,6.63
2019-03-29T09:40:26.662Z,5.17
2019-03-29T09:43:07.291Z,7.30
2019-03-29T09:45:27.413Z,6.03
2019-03-29T09:47:56.988Z,6.93
2019-03-29T09:50:26.564Z,5.50
2019-03-29T09:52:56.024Z,5.37
2019-03-29T09:55:25.606Z,5.10
2019-03-29T09:57:55.112Z,5.10
2019-03-29T10:00:24.572Z,4.80
2019-03-29T10:02:54.125Z,4.43
2019-03-29T10:05:23.674Z,4.63
2019-03-29T10:07:53.154Z,4.77
2019-03-29T10:10:22.714Z,4.40
2019-03-29T10:12:52.208Z,3.70
2019-03-29T10:15:21.722Z,3.77
2019-03-29T10:17:51.193Z,4.63
2019-03-29T10:20:20.865Z,5.00
2019-03-29T10:22:50.343Z,6.00
2019-03-29T10:25:20.428Z,4.23
2019-03-29T10:27:50.045Z,4.10
2019-03-29T10:30:41.246Z,3.90
2019-03-29T10:33:10.766Z,2.57
2019-03-29T10:35:51.698Z,3.33
2019-03-29T10:38:11.625Z,2.50
2019-03-29T10:40:41.292Z,2.40
2019-03-29T10:43:10.793Z,2.87
2019-03-29T10:45:40.916Z,2.63
2019-03-29T10:48:10.512Z,3.37
2019-03-29T10:50:40.228Z,3.20
2019-03-29T10:53:09.698Z,3.17
2019-03-29T10:55:39.207Z,2.93
2019-03-29T10:58:09.844Z,3.13
2019-03-29T11:00:40.754Z,2.43
2019-03-29T11:03:10.512Z,2.63
2019-03-29T11:05:40.258Z,2.67
2019-03-29T11:08:11.733Z,3.47
2019-03-29T11:10:41.311Z,2.90
2019-03-29T11:13:13.902Z,2.67
2019-03-29T11:15:42.277Z,2.77
2019-03-29T11:18:11.900Z,3.07
2019-03-29T11:20:41.444Z,2.63
2019-03-29T11:23:10.944Z,4.70
2019-03-29T11:25:40.550Z,3.73
2019-03-29T11:28:10.008Z,3.57
2019-03-29T11:30:42.410Z,3.10
2019-03-29T11:33:10.734Z,2.77
2019-03-29T11:35:40.226Z,3.27
2019-03-29T11:38:09.688Z,2.63
2019-03-29T11:40:39.263Z,3.27
2019-03-29T11:43:08.928Z,2.33
2019-03-29T11:45:38.481Z,3.03
2019-03-29T11:48:09.434Z,2.17
2019-03-29T11:50:39.322Z,2.40
2019-03-29T11:53:08.779Z,2.57
2019-03-29T11:55:38.295Z,2.70
2019-03-29T11:58:07.826Z,2.60
2019-03-29T12:00:38.852Z,3.23
2019-03-29T12:03:09.558Z,3.80
2019-03-29T12:05:39.556Z,2.70
2019-03-29T12:08:09.232Z,3.67
2019-03-29T12:10:38.795Z,4.50
2019-03-29T12:13:09.616Z,2.97
2019-03-29T12:15:39.426Z,3.00
2019-03-29T12:18:09.138Z,3.27
2019-03-29T12:20:38.672Z,5.53
2019-03-29T12:23:08.328Z,2.77
2019-03-29T12:25:38.005Z,2.83
2019-03-29T12:28:07.784Z,3.47
2019-03-29T12:30:37.405Z,2.40
2019-03-29T12:33:06.996Z,3.00
2019-03-29T12:35:36.561Z,2.37
2019-03-29T12:38:06.181Z,2.20
2019-03-29T12:40:35.745Z,2.70
2019-03-29T12:43:05.354Z,3.30
2019-03-29T12:45:35.161Z,2.47
2019-03-29T12:48:04.744Z,2.13
2019-03-29T12:50:34.259Z,2.77
2019-03-29T12:53:03.728Z,2.27
2019-03-29T12:55:33.221Z,3.20
2019-03-29T12:58:02.682Z,2.77
2019-03-29T13:00:32.347Z,2.10
2019-03-29T13:03:01.860Z,3.50
2019-03-29T13:05:31.404Z,3.57
2019-03-29T13:08:00.915Z,2.87
2019-03-29T13:10:30.479Z,3.00
2019-03-29T13:13:00.707Z,2.47
2019-03-29T13:15:30.727Z,3.57
2019-03-29T13:18:00.221Z,2.50
2019-03-29T13:20:29.718Z,3.30
2019-03-29T13:22:59.298Z,3.07
2019-03-29T13:25:29.039Z,2.33
2019-03-29T13:27:59.542Z,3.07
2019-03-29T13:30:29.260Z,2.47
2019-03-29T13:33:00.287Z,3.37
2019-03-29T13:35:29.860Z,2.67
2019-03-29T13:37:59.347Z,3.20
2019-03-29T13:40:28.831Z,2.23
2019-03-29T13:42:58.339Z,2.77
2019-03-29T13:45:28.232Z,2.47
2019-03-29T13:47:57.688Z,3.00
2019-03-29T13:50:27.261Z,2.50
2019-03-29T13:52:56.958Z,2.40
2019-03-29T13:55:26.482Z,2.37
2019-03-29T13:57:56.014Z,3.83
2019-03-29T14:00:25.530Z,3.07
2019-03-29T14:02:55.014Z,3.13
2019-03-29T14:05:24.504Z,3.37
2019-03-29T14:07:54.006Z,2.23
2019-03-29T14:10:23.486Z,2.53
2019-03-29T14:12:52.986Z,3.23
2019-03-29T14:15:22.460Z,2.60
2019-03-29T14:17:53.605Z,2.40
2019-03-29T14:20:32.165Z,3.57
2019-03-29T14:23:03.091Z,2.20
2019-03-29T14:25:32.705Z,2.37
2019-03-29T14:28:02.239Z,2.47
2019-03-29T14:30:31.896Z,4.03
2019-03-29T14:33:01.459Z,2.37
2019-03-29T14:35:30.949Z,3.10
2019-03-29T14:38:00.511Z,2.90
2019-03-29T14:40:30.108Z,2.73
2019-03-29T14:42:59.673Z,2.60
2019-03-29T14:45:29.220Z,1.83
2019-03-29T14:47:58.798Z,2.90
2019-03-29T14:50:28.399Z,3.77
2019-03-29T14:52:57.906Z,2.40
2019-03-29T14:55:28.082Z,2.07
2019-03-29T14:57:57.571Z,3.13
2019-03-29T15:00:39.816Z,1.90
2019-03-29T15:03:09.366Z,2.70
2019-03-29T15:05:39.326Z,2.63
2019-03-29T15:08:09.126Z,6.03
2019-03-29T15:10:38.594Z,3.20
2019-03-29T15:13:08.158Z,2.47
2019-03-29T15:15:37.794Z,1.73
2019-03-29T15:18:07.324Z,1.63
2019-03-29T15:20:36.828Z,2.40
2019-03-29T15:23:06.435Z,2.30
2019-03-29T15:25:35.978Z,2.53
2019-03-29T15:28:05.810Z,2.40
2019-03-29T15:30:36.261Z,1.77
2019-03-29T15:33:05.808Z,1.47
2019-03-29T15:35:36.778Z,2.00
2019-03-29T15:38:06.244Z,1.33
2019-03-29T15:40:35.803Z,2.43
2019-03-29T15:43:05.364Z,2.17
2019-03-29T15:45:34.897Z,1.43
2019-03-29T15:48:04.406Z,3.50
2019-03-29T15:50:33.972Z,1.83
2019-03-29T15:53:03.469Z,2.07
2019-03-29T15:55:32.962Z,1.30
2019-03-29T15:58:02.435Z,1.63
2019-03-29T16:00:31.983Z,1.30
2019-03-29T16:03:01.475Z,1.37
2019-03-29T16:05:31.115Z,1.33
2019-03-29T16:08:00.678Z,1.17
2019-03-29T16:10:30.124Z,1.20
2019-03-29T16:12:59.748Z,1.30
2019-03-29T16:15:36.432Z,1.43
2019-03-29T16:18:00.522Z,3.03
2019-03-29T16:20:30.209Z,1.50
2019-03-29T16:22:59.831Z,4.30
2019-03-29T16:25:29.543Z,2.87
2019-03-29T16:27:59.271Z,2.13
2019-03-29T16:30:28.769Z,2.60
2019-03-29T16:32:58.232Z,1.50
2019-03-29T16:35:27.715Z,3.13
2019-03-29T16:37:57.814Z,2.37
2019-03-29T16:40:30.690Z,1.53
2019-03-29T16:42:58.675Z,2.00
2019-03-29T16:45:28.195Z,3.53
2019-03-29T16:47:57.753Z,1.30
2019-03-29T16:50:27.287Z,1.23
2019-03-29T16:52:56.835Z,1.93
2019-03-29T16:55:26.370Z,1.77
2019-03-29T16:57:55.884Z,1.60
2019-03-29T17:00:25.367Z,1.47
2019-03-29T17:02:54.985Z,1.77
2019-03-29T17:05:24.456Z,1.43
2019-03-29T17:07:53.947Z,1.53
2019-03-29T17:10:23.527Z,1.00
2019-03-29T17:12:53.001Z,5.60
2019-03-29T17:15:22.587Z,3.53
2019-03-29T17:17:52.135Z,2.17
2019-03-29T17:20:40.982Z,2.07
2019-03-29T17:23:10.549Z,3.17
2019-03-29T17:25:40.103Z,1.30
2019-03-29T17:28:09.728Z,1.03
2019-03-29T17:30:54.935Z,1.13
2019-03-29T17:33:24.446Z,1.57
2019-03-29T17:35:54.025Z,1.73
2019-03-29T17:38:23.633Z,1.70
2019-03-29T17:40:53.124Z,1.03
2019-03-29T17:43:22.689Z,1.03
2019-03-29T17:45:52.245Z,0.80
2019-03-29T17:48:21.753Z,1.07
2019-03-29T17:50:51.233Z,0.90
2019-03-29T17:53:20.732Z,2.10
2019-03-29T17:55:50.268Z,1.43
2019-03-29T17:58:19.792Z,1.10
2019-03-29T18:00:49.283Z,0.80
2019-03-29T18:03:18.780Z,1.50
2019-03-29T18:05:48.285Z,1.87
2019-03-29T18:08:17.886Z,2.77
2019-03-29T18:10:47.485Z,2.40
2019-03-29T18:13:16.983Z,5.43
2019-03-29T18:15:46.561Z,7.90
2019-03-29T18:18:16.062Z,5.90
2019-03-29T18:20:45.529Z,3.87
2019-03-29T18:23:15.005Z,3.13
2019-03-29T18:25:44.606Z,2.37
2019-03-29T18:28:14.145Z,1.73
2019-03-29T18:30:44.051Z,1.47
2019-03-29T18:33:13.774Z,1.63
2019-03-29T18:35:43.379Z,1.63
2019-03-29T18:38:12.995Z,2.07
2019-03-29T18:40:42.570Z,1.10
2019-03-29T18:43:12.084Z,1.00
2019-03-29T18:45:41.953Z,2.60
2019-03-29T18:48:11.523Z,2.20
2019-03-29T18:50:41.100Z,1.83
2019-03-29T18:53:10.597Z,1.97
2019-03-29T18:55:40.139Z,2.33
2019-03-29T18:58:09.627Z,2.27
2019-03-29T19:00:39.269Z,1.93
2019-03-29T19:03:11.669Z,1.80
2019-03-29T19:05:39.996Z,2.80
2019-03-29T19:08:09.573Z,1.77
2019-03-29T19:10:39.140Z,1.27
2019-03-29T19:13:08.779Z,2.43
2019-03-29T19:15:38.382Z,1.80
2019-03-29T19:18:08.074Z,2.90
2019-03-29T19:20:37.729Z,3.10
2019-03-29T19:23:07.290Z,1.90
2019-03-29T19:25:36.811Z,1.60
2019-03-29T19:28:06.370Z,1.83
2019-03-29T19:30:35.939Z,2.03
2019-03-29T19:33:05.515Z,2.23
2019-03-29T19:35:35.031Z,1.83
2019-03-29T19:38:04.649Z,2.67
2019-03-29T19:40:34.192Z,2.10
2019-03-29T19:43:03.689Z,3.10
2019-03-29T19:45:34.536Z,1.60
2019-03-29T19:48:04.366Z,1.67
2019-03-29T19:50:33.990Z,1.20
2019-03-29T19:53:03.548Z,2.03
2019-03-29T19:55:33.068Z,2.37
2019-03-29T19:58:02.776Z,1.90
2019-03-29T20:00:41.058Z,3.23
2019-03-29T20:03:10.796Z,2.13
2019-03-29T20:05:40.326Z,1.70
2019-03-29T20:08:10.237Z,2.07
2019-03-29T20:10:39.953Z,1.50
2019-03-29T20:13:09.522Z,1.40
2019-03-29T20:15:39.042Z,1.50
2019-03-29T20:18:08.789Z,1.37
2019-03-29T20:20:38.264Z,1.90
2019-03-29T20:23:07.879Z,3.63
2019-03-29T20:25:37.472Z,1.73
2019-03-29T20:28:07.112Z,1.90
2019-03-29T20:30:36.631Z,2.27
2019-03-29T20:33:06.261Z,1.40
2019-03-29T20:35:35.854Z,1.40
2019-03-29T20:38:05.396Z,2.33
2019-03-29T20:40:34.929Z,1.53
2019-03-29T20:43:04.691Z,1.77
2019-03-29T20:45:34.306Z,1.93
2019-03-29T20:48:03.935Z,1.13
2019-03-29T20:50:33.403Z,1.50
2019-03-29T20:53:22.342Z,1.87
2019-03-29T20:55:51.815Z,1.60
2019-03-29T20:58:21.389Z,2.50
2019-03-29T21:00:50.992Z,2.07
2019-03-29T21:03:20.500Z,2.47
2019-03-29T21:05:50.051Z,2.60
2019-03-29T21:08:19.550Z,1.53
2019-03-29T21:10:55.676Z,1.97
2019-03-29T21:13:20.456Z,2.40
2019-03-29T21:15:50.081Z,1.77
2019-03-29T21:18:19.663Z,2.03
2019-03-29T21:20:50.572Z,1.47
2019-03-29T21:23:20.125Z,2.10
2019-03-29T21:25:49.688Z,2.67
2019-03-29T21:28:19.215Z,1.70
2019-03-29T21:30:48.740Z,1.80
2019-03-29T21:33:18.196Z,2.67
2019-03-29T21:35:47.771Z,3.63
2019-03-29T21:38:17.258Z,2.63
2019-03-29T21:40:46.835Z,1.93
2019-03-29T21:43:16.464Z,2.63
2019-03-29T21:45:46.051Z,2.00
2019-03-29T21:48:28.590Z,2.37
2019-03-29T21:50:46.912Z,2.07
2019-03-29T21:53:16.580Z,3.27
2019-03-29T21:55:46.102Z,2.23
2019-03-29T21:58:15.608Z,2.13
2019-03-29T22:00:45.174Z,2.97
2019-03-29T22:03:14.645Z,2.43
2019-03-29T22:05:44.418Z,1.60
2019-03-29T22:08:13.916Z,2.13
2019-03-29T22:10:43.407Z,3.90
2019-03-29T22:13:12.970Z,2.10
2019-03-29T22:15:42.471Z,3.17
2019-03-29T22:18:11.991Z,2.90
2019-03-29T22:20:41.657Z,3.27
2019-03-29T22:23:11.152Z,2.93
2019-03-29T22:25:40.711Z,3.37
2019-03-29T22:28:10.194Z,3.13
2019-03-29T22:30:39.682Z,4.20
2019-03-29T22:33:09.138Z,2.47
2019-03-29T22:35:38.633Z,2.50
2019-03-29T22:38:08.161Z,2.53
2019-03-29T22:40:37.771Z,2.93
2019-03-29T22:43:07.693Z,2.30
2019-03-29T22:45:37.254Z,2.53
2019-03-29T22:48:06.924Z,1.97
2019-03-29T22:50:36.424Z,2.90
2019-03-29T22:53:05.971Z,2.53
2019-03-29T22:55:35.500Z,2.67
2019-03-29T22:58:05.010Z,2.33
2019-03-29T23:00:40.170Z,2.67
2019-03-29T23:03:09.991Z,2.53
2019-03-29T23:05:39.589Z,2.83
2019-03-29T23:08:09.240Z,4.03
2019-03-29T23:10:38.713Z,3.83
2019-03-29T23:13:08.323Z,3.57
2019-03-29T23:15:37.977Z,3.13
2019-03-29T23:18:07.983Z,3.20
2019-03-29T23:20:37.447Z,3.53
2019-03-29T23:23:07.112Z,2.80
2019-03-29T23:25:36.670Z,4.07
2019-03-29T23:28:06.277Z,3.47
2019-03-29T23:30:35.743Z,3.33
2019-03-29T23:33:05.234Z,3.23
2019-03-29T23:35:34.753Z,2.97
2019-03-29T23:38:04.342Z,2.67
2019-03-29T23:40:33.850Z,3.53
2019-03-29T23:43:03.301Z,4.13
2019-03-29T23:45:32.799Z,4.23
2019-03-29T23:48:02.851Z,2.87
2019-03-29T23:50:32.307Z,3.33
2019-03-29T23:53:01.794Z,3.40
2019-03-29T23:55:31.347Z,3.00
2019-03-29T23:58:00.905Z,3.77
